createdAt,value
2022-11-19T00:01:16.496Z,0.76
2022-11-19T00:03:48.683Z,0.94
2022-11-19T00:06:20.573Z,0.96
2022-11-19T00:08:48.211Z,0.89
2022-11-19T00:11:37.146Z,0.86
2022-11-19T00:14:05.327Z,0.74
2022-11-19T00:16:32.745Z,0.81
2022-11-19T00:19:00.185Z,0.90
2022-11-19T00:21:27.643Z,0.88
2022-11-19T00:23:55.624Z,0.92
2022-11-19T00:26:23.491Z,0.85
2022-11-19T00:28:51.069Z,0.78
2022-11-19T00:31:20.207Z,0.85
2022-11-19T00:33:50.380Z,0.83
2022-11-19T00:36:18.344Z,0.86
2022-11-19T00:38:45.813Z,1.02
2022-11-19T00:41:13.284Z,0.90
2022-11-19T00:43:50.330Z,0.85
2022-11-19T00:46:20.818Z,0.72
2022-11-19T00:48:49.050Z,1.00
2022-11-19T00:51:18.223Z,0.88
2022-11-19T00:53:46.245Z,0.91
2022-11-19T00:56:15.139Z,0.96
2022-11-19T00:58:43.219Z,0.88
2022-11-19T01:01:11.820Z,1.02
2022-11-19T01:03:41.755Z,0.92
2022-11-19T01:06:09.958Z,0.91
2022-11-19T01:08:37.932Z,1.01
2022-11-19T01:11:06.451Z,1.02
2022-11-19T01:13:36.420Z,1.07
2022-11-19T01:16:06.739Z,1.11
2022-11-19T01:18:34.842Z,1.07
2022-11-19T01:21:04.539Z,1.02
2022-11-19T01:23:32.181Z,1.02
2022-11-19T01:25:59.731Z,1.01
2022-11-19T01:28:27.187Z,0.87
2022-11-19T01:30:54.654Z,1.05
2022-11-19T01:33:22.720Z,0.69
2022-11-19T01:36:00.357Z,0.83
2022-11-19T01:38:29.520Z,1.00
2022-11-19T01:40:58.133Z,1.04
2022-11-19T01:43:41.007Z,0.96
2022-11-19T01:46:08.663Z,1.08
2022-11-19T01:48:38.579Z,1.00
2022-11-19T01:51:10.271Z,0.62
2022-11-19T01:53:39.299Z,0.78
2022-11-19T01:56:08.374Z,0.85
2022-11-19T01:58:38.208Z,0.89
2022-11-19T02:01:06.138Z,0.98
2022-11-19T02:03:33.967Z,0.88
2022-11-19T02:06:02.791Z,0.75
2022-11-19T02:08:41.515Z,0.68
2022-11-19T02:11:44.481Z,0.93
2022-11-19T02:14:33.804Z,0.65
2022-11-19T02:17:09.055Z,0.62
2022-11-19T02:20:08.698Z,0.71
2022-11-19T02:22:57.080Z,0.65
2022-11-19T02:25:33.306Z,0.89
2022-11-19T02:28:23.532Z,0.76
2022-11-19T02:30:53.620Z,0.49
2022-11-19T02:33:24.650Z,0.65
2022-11-19T02:35:56.331Z,0.64
2022-11-19T02:38:28.984Z,0.79
2022-11-19T02:40:59.071Z,0.63
2022-11-19T02:43:28.572Z,0.57
2022-11-19T02:46:00.254Z,0.54
2022-11-19T02:48:30.658Z,0.39
2022-11-19T02:50:59.456Z,0.27
2022-11-19T02:53:26.931Z,0.31
2022-11-19T02:56:08.325Z,0.36
2022-11-19T02:58:54.142Z,0.47
2022-11-19T03:01:40.714Z,0.62
2022-11-19T03:04:26.808Z,0.55
2022-11-19T03:06:54.669Z,0.35
2022-11-19T03:09:23.105Z,0.47
2022-11-19T03:11:55.243Z,0.41
2022-11-19T03:14:42.132Z,0.32
2022-11-19T03:17:15.499Z,0.16
2022-11-19T03:19:45.936Z,0.24
2022-11-19T03:22:18.068Z,0.14
2022-11-19T03:24:48.360Z,0.05
2022-11-19T03:27:21.372Z,0.03
2022-11-19T03:29:50.719Z,-0.23
2022-11-19T03:32:22.621Z,-0.13
2022-11-19T03:34:53.168Z,-0.20
2022-11-19T03:37:23.044Z,-0.25
2022-11-19T03:39:53.262Z,-0.40
2022-11-19T03:42:21.349Z,-0.63
2022-11-19T03:44:50.822Z,-0.66
2022-11-19T03:47:21.816Z,-0.52
2022-11-19T03:49:52.347Z,-0.84
2022-11-19T03:52:21.280Z,-0.75
2022-11-19T03:54:48.780Z,-0.63
2022-11-19T03:57:19.435Z,-0.82
2022-11-19T03:59:47.498Z,-0.75
2022-11-19T04:02:15.846Z,-0.84
2022-11-19T04:04:44.657Z,-0.99
2022-11-19T04:07:17.424Z,-0.99
2022-11-19T04:09:45.232Z,-0.91
2022-11-19T04:12:16.522Z,-0.82
2022-11-19T04:14:43.946Z,-0.88
2022-11-19T04:17:11.698Z,-0.98
2022-11-19T04:19:39.166Z,-1.18
2022-11-19T04:22:07.940Z,-0.92
2022-11-19T04:24:35.491Z,-1.07
2022-11-19T04:27:03.117Z,-1.13
2022-11-19T04:29:30.530Z,-1.17
2022-11-19T04:31:57.990Z,-1.15
2022-11-19T04:34:25.407Z,-1.20
2022-11-19T04:36:52.876Z,-1.05
2022-11-19T04:39:21.985Z,-1.08
2022-11-19T04:41:49.527Z,-1.38
2022-11-19T04:44:16.956Z,-1.32
2022-11-19T04:46:44.534Z,-1.38
2022-11-19T04:49:11.983Z,-1.34
2022-11-19T04:51:39.434Z,-1.34
2022-11-19T04:54:08.479Z,-1.29
2022-11-19T04:56:37.793Z,-1.72
2022-11-19T04:59:05.265Z,-1.54
2022-11-19T05:01:32.835Z,-1.48
2022-11-19T05:04:00.302Z,-1.50
2022-11-19T05:06:27.910Z,-1.44
2022-11-19T05:08:55.359Z,-1.55
2022-11-19T05:11:22.795Z,-1.56
2022-11-19T05:13:51.559Z,-1.73
2022-11-19T05:16:19.003Z,-1.65
2022-11-19T05:18:46.448Z,-1.84
2022-11-19T05:21:13.836Z,-1.77
2022-11-19T05:23:41.254Z,-1.69
2022-11-19T05:26:08.684Z,-1.77
2022-11-19T05:28:40.109Z,-1.76
2022-11-19T05:31:09.425Z,-1.68
2022-11-19T05:33:36.867Z,-1.84
2022-11-19T05:36:04.743Z,-1.77
2022-11-19T05:38:32.254Z,-1.80
2022-11-19T05:40:59.624Z,-1.98
2022-11-19T05:43:27.156Z,-1.91
2022-11-19T05:45:54.613Z,-1.95
2022-11-19T05:48:23.355Z,-2.09
2022-11-19T05:50:50.798Z,-1.81
2022-11-19T05:53:18.269Z,-1.95
2022-11-19T05:55:45.694Z,-1.95
2022-11-19T05:58:13.674Z,-2.00
2022-11-19T06:00:41.319Z,-1.95
2022-11-19T06:03:09.703Z,-1.87
2022-11-19T06:05:40.587Z,-1.92
2022-11-19T06:08:08.367Z,-1.98
2022-11-19T06:10:35.792Z,-2.07
2022-11-19T06:13:03.234Z,-1.97
2022-11-19T06:15:30.730Z,-1.82
2022-11-19T06:17:58.511Z,-1.94
2022-11-19T06:20:25.934Z,-1.99
2022-11-19T06:22:54.691Z,-2.45
2022-11-19T06:25:22.112Z,-2.18
2022-11-19T06:27:49.579Z,-2.14
2022-11-19T06:30:17.704Z,-2.30
2022-11-19T06:32:45.145Z,-2.37
2022-11-19T06:35:14.375Z,-2.34
2022-11-19T06:37:42.070Z,-2.55
2022-11-19T06:40:12.422Z,-2.34
2022-11-19T06:42:39.849Z,-2.54
2022-11-19T06:45:09.482Z,-2.30
2022-11-19T06:47:39.743Z,-2.50
2022-11-19T06:50:08.211Z,-2.48
2022-11-19T06:52:35.890Z,-2.47
2022-11-19T06:55:03.411Z,-2.25
2022-11-19T06:57:32.222Z,-2.48
2022-11-19T06:59:59.625Z,-2.23
2022-11-19T07:02:27.211Z,-2.28
2022-11-19T07:04:54.640Z,-2.37
2022-11-19T07:07:22.177Z,-2.29
2022-11-19T07:09:49.725Z,-2.45
2022-11-19T07:12:17.220Z,-2.33
2022-11-19T07:14:46.029Z,-2.39
2022-11-19T07:17:13.427Z,-2.36
2022-11-19T07:19:40.899Z,-2.39
2022-11-19T07:22:08.323Z,-2.29
2022-11-19T07:24:35.948Z,-2.25
2022-11-19T07:27:03.368Z,-2.01
2022-11-19T07:29:30.844Z,-2.16
2022-11-19T07:31:59.647Z,-2.05
2022-11-19T07:34:27.031Z,-2.00
2022-11-19T07:36:54.450Z,-2.02
2022-11-19T07:39:22.446Z,-2.12
2022-11-19T07:42:07.664Z,-1.96
2022-11-19T07:44:35.186Z,-1.84
2022-11-19T07:47:04.087Z,-1.89
2022-11-19T07:49:31.495Z,-1.86
2022-11-19T07:51:58.890Z,-1.91
2022-11-19T07:54:26.366Z,-1.65
2022-11-19T07:56:53.834Z,-1.84
2022-11-19T07:59:21.654Z,-1.57
2022-11-19T08:01:49.412Z,-1.60
2022-11-19T08:04:18.237Z,-1.66
2022-11-19T08:06:47.320Z,-1.62
2022-11-19T08:09:14.802Z,-1.21
2022-11-19T08:11:42.274Z,-1.40
2022-11-19T08:14:09.774Z,-1.58
2022-11-19T08:16:54.719Z,-1.48
2022-11-19T08:19:23.734Z,-1.67
2022-11-19T08:21:51.480Z,-1.32
2022-11-19T08:24:20.914Z,-1.15
2022-11-19T08:26:48.805Z,-1.19
2022-11-19T08:29:17.930Z,-1.31
2022-11-19T08:31:46.719Z,-1.08
2022-11-19T08:34:14.386Z,-1.04
2022-11-19T08:36:43.319Z,-1.13
2022-11-19T08:39:11.331Z,-1.13
2022-11-19T08:41:56.714Z,-0.86
2022-11-19T08:44:24.267Z,-0.72
2022-11-19T08:46:51.980Z,-1.11
2022-11-19T08:49:19.685Z,-1.01
2022-11-19T08:51:48.484Z,-0.70
2022-11-19T08:54:15.957Z,-1.04
2022-11-19T08:56:43.377Z,-0.80
2022-11-19T08:59:10.792Z,-0.80
2022-11-19T09:01:38.201Z,-0.90
2022-11-19T09:04:06.066Z,-0.94
2022-11-19T09:06:35.002Z,-0.90
2022-11-19T09:09:03.826Z,-0.65
2022-11-19T09:11:31.395Z,-0.47
2022-11-19T09:13:58.825Z,-0.66
2022-11-19T09:16:26.334Z,-0.43
2022-11-19T09:18:53.846Z,-0.27
2022-11-19T09:21:21.265Z,-0.20
2022-11-19T09:23:48.675Z,-0.07
2022-11-19T09:26:18.915Z,0.09
2022-11-19T09:28:46.784Z,0.12
2022-11-19T09:31:15.780Z,0.16
2022-11-19T09:33:46.060Z,0.15
2022-11-19T09:36:13.780Z,0.35
2022-11-19T09:38:41.699Z,0.31
2022-11-19T09:41:30.228Z,0.48
2022-11-19T09:44:04.681Z,0.40
2022-11-19T09:46:38.932Z,0.29
2022-11-19T09:49:10.435Z,0.46
2022-11-19T09:51:38.571Z,0.24
2022-11-19T09:54:08.894Z,0.44
2022-11-19T09:56:38.903Z,0.69
2022-11-19T09:59:14.704Z,0.36
2022-11-19T10:01:42.325Z,0.53
2022-11-19T10:04:11.501Z,0.33
2022-11-19T10:06:45.909Z,0.68
2022-11-19T10:09:26.679Z,0.66
2022-11-19T10:12:02.650Z,1.00
2022-11-19T10:14:40.974Z,0.81
2022-11-19T10:17:18.571Z,1.16
2022-11-19T10:19:54.561Z,1.38
2022-11-19T10:22:23.929Z,1.23
2022-11-19T10:24:56.792Z,1.33
2022-11-19T10:27:30.709Z,1.31
2022-11-19T10:30:01.141Z,1.28
2022-11-19T10:32:32.552Z,1.47
2022-11-19T10:35:03.696Z,1.62
2022-11-19T10:37:34.566Z,1.45
2022-11-19T10:40:04.577Z,1.38
2022-11-19T10:42:37.003Z,1.73
2022-11-19T10:45:06.143Z,1.66
2022-11-19T10:47:41.079Z,1.47
2022-11-19T10:50:17.049Z,1.59
2022-11-19T10:52:46.336Z,1.84
2022-11-19T10:55:18.946Z,2.07
2022-11-19T10:57:49.402Z,1.85
2022-11-19T11:00:19.806Z,1.65
2022-11-19T11:02:49.271Z,1.92
2022-11-19T11:05:19.239Z,2.15
2022-11-19T11:07:50.639Z,2.48
2022-11-19T11:10:30.666Z,2.52
2022-11-19T11:13:24.987Z,2.32
2022-11-19T11:15:53.297Z,2.09
2022-11-19T11:18:26.229Z,2.51
2022-11-19T11:20:53.780Z,2.24
2022-11-19T11:23:23.290Z,2.33
2022-11-19T11:25:57.467Z,2.27
2022-11-19T11:28:26.275Z,2.30
2022-11-19T11:30:55.768Z,2.54
2022-11-19T11:33:32.623Z,2.65
2022-11-19T11:36:02.253Z,2.41
2022-11-19T11:38:30.607Z,2.76
2022-11-19T11:41:31.463Z,2.44
2022-11-19T11:44:02.088Z,2.76
2022-11-19T11:46:35.990Z,2.51
2022-11-19T11:49:09.709Z,2.72
2022-11-19T11:51:40.377Z,2.52
2022-11-19T11:54:18.297Z,2.74
2022-11-19T11:56:46.447Z,2.77
2022-11-19T11:59:25.696Z,2.47
2022-11-19T12:01:56.877Z,2.47
2022-11-19T12:04:24.716Z,2.60
2022-11-19T12:07:06.410Z,2.80
2022-11-19T12:09:40.855Z,2.58
2022-11-19T12:12:12.820Z,2.80
2022-11-19T12:14:47.219Z,2.26
2022-11-19T12:17:22.063Z,2.41
2022-11-19T12:20:04.351Z,2.52
2022-11-19T12:22:38.523Z,2.24
2022-11-19T12:25:20.651Z,2.62
2022-11-19T12:27:59.991Z,2.68
2022-11-19T12:30:38.766Z,2.33
2022-11-19T12:33:17.696Z,2.32
2022-11-19T12:35:53.743Z,2.51
2022-11-19T12:38:29.388Z,2.52
2022-11-19T12:41:03.015Z,2.29
2022-11-19T12:43:47.494Z,2.47
2022-11-19T12:46:21.934Z,2.25
2022-11-19T12:48:58.347Z,2.02
2022-11-19T12:51:36.207Z,2.16
2022-11-19T12:54:28.895Z,2.01
2022-11-19T12:57:13.926Z,2.07
2022-11-19T12:59:53.001Z,2.02
2022-11-19T13:02:25.576Z,1.50
2022-11-19T13:04:55.927Z,1.87
2022-11-19T13:07:26.274Z,1.62
2022-11-19T13:09:58.662Z,2.02
2022-11-19T13:12:31.711Z,1.89
2022-11-19T13:15:01.835Z,1.81
2022-11-19T13:17:33.210Z,2.00
2022-11-19T13:20:04.565Z,2.29
2022-11-19T13:22:34.679Z,2.28
2022-11-19T13:25:05.051Z,2.26
2022-11-19T13:27:33.107Z,2.12
2022-11-19T13:30:03.290Z,1.76
2022-11-19T13:32:38.372Z,2.04
2022-11-19T13:35:13.934Z,2.17
2022-11-19T13:37:46.556Z,2.17
2022-11-19T13:40:26.909Z,2.16
2022-11-19T13:46:05.874Z,2.22
2022-11-19T13:48:37.527Z,2.34
2022-11-19T13:51:09.572Z,2.51
2022-11-19T13:53:40.266Z,2.24
2022-11-19T13:56:12.342Z,2.30
2022-11-19T13:58:45.638Z,2.01
2022-11-19T14:01:49.455Z,2.02
2022-11-19T14:04:28.678Z,2.22
2022-11-19T14:07:12.997Z,2.03
2022-11-19T14:09:47.443Z,1.89
2022-11-19T14:12:29.643Z,1.86
2022-11-19T14:15:39.512Z,1.66
2022-11-19T14:18:33.399Z,1.73
2022-11-19T14:21:51.818Z,1.68
2022-11-19T14:25:16.675Z,1.36
2022-11-19T14:27:45.648Z,1.71
2022-11-19T14:30:19.194Z,1.41
2022-11-19T14:32:48.964Z,1.59
2022-11-19T14:35:22.814Z,1.67
2022-11-19T14:37:52.013Z,1.54
2022-11-19T14:40:23.019Z,1.56
2022-11-19T14:43:42.864Z,1.60
2022-11-19T14:46:29.683Z,1.50
2022-11-19T14:49:35.674Z,1.57
2022-11-19T14:52:04.015Z,1.38
2022-11-19T14:54:38.210Z,1.17
2022-11-19T14:57:12.656Z,1.22
2022-11-19T14:59:46.420Z,1.15
2022-11-19T15:02:23.266Z,1.16
2022-11-19T15:04:55.042Z,0.98
2022-11-19T15:07:55.646Z,0.94
2022-11-19T15:10:34.563Z,0.82
2022-11-19T15:13:21.203Z,0.96
2022-11-19T15:15:52.089Z,0.88
2022-11-19T15:18:51.563Z,0.91
2022-11-19T15:21:31.329Z,0.86
2022-11-19T15:24:07.402Z,0.75
2022-11-19T15:26:40.365Z,0.64
2022-11-19T15:29:14.644Z,0.54
2022-11-19T15:31:55.851Z,0.49
2022-11-19T15:34:49.122Z,0.45
2022-11-19T15:37:24.465Z,0.13
2022-11-19T15:39:53.534Z,0.19
2022-11-19T15:42:26.612Z,0.15
2022-11-19T15:44:56.497Z,0.15
2022-11-19T15:47:29.818Z,0.09
2022-11-19T15:49:58.613Z,0.08
2022-11-19T15:52:28.526Z,-0.08
2022-11-19T15:55:11.544Z,-0.09
2022-11-19T15:57:42.577Z,-0.22
2022-11-19T16:00:16.687Z,-0.46
2022-11-19T16:02:46.721Z,-0.59
2022-11-19T16:05:20.740Z,-0.56
2022-11-19T16:07:48.814Z,-0.87
2022-11-19T16:10:21.517Z,-0.74
2022-11-19T16:13:13.574Z,-0.77
2022-11-19T16:16:06.215Z,-0.68
2022-11-19T16:18:35.118Z,-0.58
2022-11-19T16:21:02.543Z,-0.65
2022-11-19T16:23:30.020Z,-0.69
2022-11-19T16:26:02.547Z,-0.80
2022-11-19T16:28:31.144Z,-1.20
2022-11-19T16:31:01.819Z,-1.48
2022-11-19T16:33:30.625Z,-1.67
2022-11-19T16:36:13.987Z,-1.55
2022-11-19T16:38:43.555Z,-1.56
2022-11-19T16:41:29.404Z,-1.87
2022-11-19T16:43:57.371Z,-1.87
2022-11-19T16:46:28.270Z,-1.66
2022-11-19T16:48:57.410Z,-1.56
2022-11-19T16:51:40.110Z,-1.72
2022-11-19T16:54:09.942Z,-1.56
2022-11-19T16:56:45.477Z,-1.49
2022-11-19T16:59:20.925Z,-1.42
2022-11-19T17:01:56.922Z,-1.49
2022-11-19T17:04:26.796Z,-1.48
2022-11-19T17:06:56.163Z,-1.75
2022-11-19T17:09:36.025Z,-2.06
2022-11-19T17:12:18.775Z,-2.08
2022-11-19T17:14:53.650Z,-2.18
2022-11-19T17:17:25.736Z,-1.95
2022-11-19T17:19:53.343Z,-1.99
2022-11-19T17:22:24.438Z,-2.07
2022-11-19T17:24:52.184Z,-2.11
2022-11-19T17:27:26.450Z,-2.14
2022-11-19T17:29:59.439Z,-2.19
2022-11-19T17:32:27.090Z,-2.33
2022-11-19T17:34:55.264Z,-2.41
2022-11-19T17:37:24.016Z,-2.66
2022-11-19T17:39:51.433Z,-2.72
2022-11-19T17:42:36.534Z,-2.57
2022-11-19T17:45:10.327Z,-2.40
2022-11-19T17:47:39.715Z,-2.29
2022-11-19T17:50:08.185Z,-2.39
2022-11-19T17:52:36.925Z,-2.44
2022-11-19T17:55:12.911Z,-2.60
2022-11-19T17:57:42.783Z,-2.71
2022-11-19T18:00:11.819Z,-2.70
2022-11-19T18:02:39.270Z,-2.65
2022-11-19T18:05:14.482Z,-2.71
2022-11-19T18:07:43.303Z,-2.77
2022-11-19T18:10:11.787Z,-3.22
2022-11-19T18:12:39.324Z,-2.94
2022-11-19T18:15:07.512Z,-2.92
2022-11-19T18:17:35.946Z,-3.01
2022-11-19T18:20:04.132Z,-3.43
2022-11-19T18:22:31.604Z,-3.58
2022-11-19T18:25:00.497Z,-3.42
2022-11-19T18:27:28.256Z,-3.14
2022-11-19T18:29:55.753Z,-2.95
2022-11-19T18:32:23.229Z,-3.00
2022-11-19T18:34:50.632Z,-3.30
2022-11-19T18:37:18.100Z,-3.23
2022-11-19T18:39:45.548Z,-3.03
2022-11-19T18:42:14.362Z,-3.08
2022-11-19T18:44:43.253Z,-3.05
2022-11-19T18:47:12.371Z,-3.04
2022-11-19T18:49:40.460Z,-3.45
2022-11-19T18:52:09.767Z,-3.65
2022-11-19T18:54:37.342Z,-3.46
2022-11-19T18:57:04.809Z,-3.22
2022-11-19T18:59:33.629Z,-3.19
2022-11-19T19:02:01.228Z,-3.26
2022-11-19T19:04:28.752Z,-3.55
2022-11-19T19:06:56.413Z,-3.41
2022-11-19T19:09:24.226Z,-3.29
2022-11-19T19:12:13.484Z,-3.28
2022-11-19T19:14:42.978Z,-3.59
2022-11-19T19:17:10.607Z,-3.46
2022-11-19T19:19:38.131Z,-3.24
2022-11-19T19:22:05.761Z,-3.28
2022-11-19T19:24:33.660Z,-3.20
2022-11-19T19:27:01.434Z,-3.12
2022-11-19T19:29:28.875Z,-3.17
2022-11-19T19:31:58.056Z,-3.22
2022-11-19T19:34:25.483Z,-3.22
2022-11-19T19:36:53.759Z,-3.32
2022-11-19T19:39:21.907Z,-3.34
2022-11-19T19:41:49.936Z,-3.30
2022-11-19T19:44:17.789Z,-3.41
2022-11-19T19:46:47.991Z,-3.69
2022-11-19T19:49:16.804Z,-3.69
2022-11-19T19:51:44.303Z,-3.56
2022-11-19T19:54:11.783Z,-3.72
2022-11-19T19:56:39.675Z,-3.73
2022-11-19T19:59:07.205Z,-3.47
2022-11-19T20:01:36.421Z,-3.48
2022-11-19T20:04:05.424Z,-3.47
2022-11-19T20:06:35.284Z,-3.44
2022-11-19T20:09:08.205Z,-3.48
2022-11-19T20:11:37.472Z,-3.52
2022-11-19T20:14:05.398Z,-3.53
2022-11-19T20:16:34.048Z,-3.53
2022-11-19T20:19:03.176Z,-3.48
2022-11-19T20:21:33.884Z,-3.44
2022-11-19T20:24:08.754Z,-3.65
2022-11-19T20:26:40.632Z,-3.46
2022-11-19T20:29:08.779Z,-3.37
2022-11-19T20:31:36.218Z,-3.43
2022-11-19T20:34:05.395Z,-3.46
2022-11-19T20:36:35.220Z,-3.51
2022-11-19T20:39:04.815Z,-3.58
2022-11-19T20:41:50.135Z,-3.59
2022-11-19T20:44:22.514Z,-3.66
2022-11-19T20:46:52.192Z,-4.21
2022-11-19T20:49:21.134Z,-3.86
2022-11-19T20:51:49.172Z,-3.65
2022-11-19T20:54:18.355Z,-3.60
2022-11-19T20:56:45.855Z,-3.77
2022-11-19T20:59:13.337Z,-3.71
2022-11-19T21:01:41.067Z,-3.65
2022-11-19T21:04:08.736Z,-3.82
2022-11-19T21:06:36.135Z,-3.94
2022-11-19T21:09:03.993Z,-4.03
2022-11-19T21:11:33.334Z,-4.31
2022-11-19T21:14:01.023Z,-3.92
2022-11-19T21:16:29.803Z,-3.72
2022-11-19T21:18:57.252Z,-3.74
2022-11-19T21:21:25.355Z,-3.98
2022-11-19T21:23:53.367Z,-3.88
2022-11-19T21:26:22.214Z,-3.77
2022-11-19T21:28:52.526Z,-3.81
2022-11-19T21:31:22.061Z,-3.95
2022-11-19T21:33:49.675Z,-4.07
2022-11-19T21:36:17.202Z,-4.07
2022-11-19T21:38:44.703Z,-4.33
2022-11-19T21:41:12.096Z,-4.56
2022-11-19T21:43:39.702Z,-4.40
2022-11-19T21:46:09.145Z,-4.48
2022-11-19T21:48:38.383Z,-4.40
2022-11-19T21:51:07.335Z,-4.42
2022-11-19T21:53:35.092Z,-4.40
2022-11-19T21:56:03.104Z,-4.60
2022-11-19T21:58:30.533Z,-4.47
2022-11-19T22:00:59.164Z,-4.36
2022-11-19T22:03:30.977Z,-4.35
2022-11-19T22:05:59.784Z,-4.63
2022-11-19T22:08:29.474Z,-4.50
2022-11-19T22:10:57.003Z,-4.43
2022-11-19T22:13:24.720Z,-4.57
2022-11-19T22:15:54.310Z,-4.73
2022-11-19T22:18:21.740Z,-4.38
2022-11-19T22:20:50.583Z,-4.27
2022-11-19T22:23:23.037Z,-4.25
2022-11-19T22:25:51.756Z,-4.44
2022-11-19T22:28:21.891Z,-4.48
2022-11-19T22:30:52.923Z,-4.43
2022-11-19T22:33:20.413Z,-4.45
2022-11-19T22:35:47.931Z,-4.47
2022-11-19T22:38:16.710Z,-4.55
2022-11-19T22:40:44.107Z,-4.52
2022-11-19T22:43:11.561Z,-4.48
2022-11-19T22:45:38.952Z,-4.44
2022-11-19T22:48:07.055Z,-4.58
2022-11-19T22:50:34.438Z,-4.63
2022-11-19T22:53:01.879Z,-4.65
2022-11-19T22:55:30.619Z,-4.60
2022-11-19T22:57:58.040Z,-4.66
2022-11-19T23:00:40.272Z,-4.88
2022-11-19T23:03:07.828Z,-4.98
2022-11-19T23:05:37.215Z,-4.78
2022-11-19T23:08:06.011Z,-4.68
2022-11-19T23:10:35.092Z,-5.03
2022-11-19T23:13:20.223Z,-4.78
2022-11-19T23:15:58.696Z,-4.70
2022-11-19T23:18:26.320Z,-4.60
2022-11-19T23:20:56.492Z,-4.60
2022-11-19T23:23:24.147Z,-4.72
2022-11-19T23:25:56.179Z,-5.03
2022-11-19T23:28:23.811Z,-4.84
2022-11-19T23:30:51.299Z,-4.74
2022-11-19T23:33:18.708Z,-4.78
2022-11-19T23:35:46.358Z,-4.83
2022-11-19T23:38:14.040Z,-4.74
2022-11-19T23:40:41.466Z,-4.62
2022-11-19T23:43:10.300Z,-4.55
2022-11-19T23:45:37.729Z,-5.07
2022-11-19T23:48:05.511Z,-4.91
2022-11-19T23:50:32.963Z,-4.72
2022-11-19T23:53:00.371Z,-4.63
2022-11-19T23:55:27.939Z,-4.66
2022-11-19T23:57:55.397Z,-4.81
